Time;durP1;ratioP1;P1;durP2;ratioP2;P2;SDS_P1;SDS_P2;PMS_P1;PMS_P2;Temp;Humidity;BMP_temperature;BMP_pressure;BME280_temperature;BME280_humidity;BME280_pressure;Samples;Min_cycle;Max_cycle;Signal;HPM_P1;HPM_P2
2023/12/02 00:01:20;;;;;;;16.60;11.18;;;;;;;;;;5021211;28;20057;-73
2023/12/02 00:03:50;;;;;;;14.75;13.15;;;;;;;;;;5023245;28;20647;-74
2023/12/02 00:06:20;;;;;;;14.05;10.65;;;;;;;;;;5023779;28;20053;-79
2023/12/02 00:08:50;;;;;;;14.73;11.43;;;;;;;;;;5023195;28;20041;-74
2023/12/02 00:11:21;;;;;;;13.35;11.98;;;;;;;;;;5022418;28;20547;-74
2023/12/02 00:13:58;;;;;;;15.98;11.32;;;;;;;;;;5023191;28;20057;-74
2023/12/02 00:16:28;;;;;;;17.75;16.13;;;;;;;;;;5022774;28;20427;-75
2023/12/02 00:18:58;;;;;;;19.05;13.13;;;;;;;;;;5022472;28;20053;-75
2023/12/02 00:21:28;;;;;;;11.75;10.55;;;;;;;;;;5022499;28;20072;-74
2023/12/02 00:23:58;;;;;;;13.45;12.18;;;;;;;;;;5022691;28;20053;-74
2023/12/02 00:26:29;;;;;;;13.57;11.77;;;;;;;;;;5023284;28;20049;-77
2023/12/02 00:29:01;;;;;;;14.20;12.02;;;;;;;;;;5022528;28;20057;-74
2023/12/02 00:31:31;;;;;;;15.70;14.05;;;;;;;;;;5022672;28;20053;-76
2023/12/02 00:34:01;;;;;;;13.82;12.50;;;;;;;;;;5021253;28;20060;-74
2023/12/02 00:36:34;;;;;;;17.20;14.05;;;;;;;;;;5023089;28;20048;-74
2023/12/02 00:39:05;;;;;;;12.85;11.43;;;;;;;;;;5022992;28;20060;-74
2023/12/02 00:41:35;;;;;;;17.58;15.95;;;;;;;;;;5022538;28;20053;-74
2023/12/02 00:44:05;;;;;;;16.38;14.77;;;;;;;;;;5021835;28;20049;-74
2023/12/02 00:46:35;;;;;;;16.85;11.98;;;;;;;;;;5022338;28;20061;-74
2023/12/02 00:49:05;;;;;;;13.20;11.95;;;;;;;;;;5022310;28;20057;-74
2023/12/02 00:51:36;;;;;;;15.57;11.82;;;;;;;;;;5022114;28;20053;-74
2023/12/02 00:54:06;;;;;;;15.65;14.30;;;;;;;;;;5023121;28;20037;-74
2023/12/02 00:56:37;;;;;;;14.77;12.85;;;;;;;;;;5022230;28;20060;-74
2023/12/02 00:59:06;;;;;;;14.43;13.10;;;;;;;;;;5022540;28;20083;-74
2023/12/02 01:01:37;;;;;;;15.40;14.00;;;;;;;;;;5022219;28;20052;-74
2023/12/02 01:04:08;;;;;;;15.98;14.23;;;;;;;;;;5022714;28;20064;-80
2023/12/02 01:06:38;;;;;;;19.25;11.98;;;;;;;;;;5022023;28;20049;-74
2023/12/02 01:09:08;;;;;;;19.25;14.07;;;;;;;;;;5019612;28;20056;-74
2023/12/02 01:11:38;;;;;;;16.17;14.60;;;;;;;;;;5022268;28;20037;-75
2023/12/02 01:14:08;;;;;;;19.00;15.50;;;;;;;;;;5020828;28;20536;-74
2023/12/02 01:16:38;;;;;;;20.98;17.08;;;;;;;;;;5020875;28;20057;-75
2023/12/02 01:19:10;;;;;;;21.25;17.40;;;;;;;;;;5021951;28;20049;-74
2023/12/02 01:21:40;;;;;;;16.00;14.45;;;;;;;;;;5021931;28;20559;-74
2023/12/02 01:24:11;;;;;;;19.98;17.90;;;;;;;;;;5022382;28;20053;-74
2023/12/02 01:26:42;;;;;;;24.42;15.75;;;;;;;;;;5022039;28;20083;-74
2023/12/02 01:29:12;;;;;;;23.52;19.83;;;;;;;;;;5021746;28;20497;-75
2023/12/02 01:31:42;;;;;;;26.85;20.58;;;;;;;;;;5022544;28;20049;-74
2023/12/02 01:34:12;;;;;;;26.90;19.02;;;;;;;;;;5022535;28;20050;-74
2023/12/02 01:36:44;;;;;;;22.48;17.67;;;;;;;;;;5022143;28;20049;-74
2023/12/02 01:39:15;;;;;;;25.70;15.63;;;;;;;;;;5021701;28;20045;-74
2023/12/02 01:41:45;;;;;;;17.60;14.32;;;;;;;;;;5022109;28;20049;-74
2023/12/02 01:44:15;;;;;;;15.55;12.32;;;;;;;;;;5021514;28;20049;-74
2023/12/02 01:46:45;;;;;;;13.75;12.45;;;;;;;;;;5021699;28;20893;-75
2023/12/02 01:49:19;;;;;;;16.20;13.82;;;;;;;;;;5021781;28;20057;-74
2023/12/02 01:51:51;;;;;;;17.95;14.95;;;;;;;;;;5021582;28;20061;-75
2023/12/02 01:54:23;;;;;;;15.70;14.13;;;;;;;;;;5020365;28;20514;-75
2023/12/02 01:56:52;;;;;;;15.25;13.93;;;;;;;;;;5021871;28;20504;-77
2023/12/02 01:59:33;;;;;;;21.30;19.45;;;;;;;;;;5022259;28;20048;-74
2023/12/02 02:02:04;;;;;;;20.20;17.40;;;;;;;;;;5021431;28;20099;-74
2023/12/02 02:04:35;;;;;;;17.80;16.35;;;;;;;;;;5022739;28;20080;-75
2023/12/02 02:07:05;;;;;;;19.45;17.60;;;;;;;;;;5021926;28;20053;-74
2023/12/02 02:09:44;;;;;;;21.92;19.65;;;;;;;;;;5021601;28;20546;-74
2023/12/02 02:12:16;;;;;;;18.38;16.33;;;;;;;;;;5021762;28;20064;-74
2023/12/02 02:14:46;;;;;;;18.92;17.10;;;;;;;;;;5021601;28;20056;-74
2023/12/02 02:17:16;;;;;;;18.90;17.05;;;;;;;;;;5021343;28;20061;-74
2023/12/02 02:19:46;;;;;;;15.63;14.25;;;;;;;;;;5022179;28;20096;-74
2023/12/02 02:22:20;;;;;;;19.98;17.85;;;;;;;;;;5024399;28;20096;-75
2023/12/02 02:24:51;;;;;;;22.48;20.42;;;;;;;;;;5025094;28;20415;-74
2023/12/02 02:27:20;;;;;;;18.33;16.73;;;;;;;;;;5024945;28;20045;-74
2023/12/02 02:29:51;;;;;;;17.77;15.95;;;;;;;;;;5024896;28;20526;-74
2023/12/02 02:32:22;;;;;;;24.92;22.98;;;;;;;;;;5025390;28;20416;-74
2023/12/02 02:34:53;;;;;;;19.65;17.75;;;;;;;;;;5024146;28;20060;-74
2023/12/02 02:37:23;;;;;;;17.08;15.27;;;;;;;;;;5025245;28;20041;-74
2023/12/02 02:39:53;;;;;;;17.08;15.35;;;;;;;;;;5005507;28;20054;-75
2023/12/02 02:42:23;;;;;;;26.77;24.02;;;;;;;;;;5005249;28;20402;-74
2023/12/02 02:44:54;;;;;;;19.23;17.38;;;;;;;;;;5003873;28;20053;-75
2023/12/02 02:47:25;;;;;;;19.35;15.80;;;;;;;;;;5004690;28;20061;-75
2023/12/02 02:49:57;;;;;;;16.90;12.63;;;;;;;;;;5003527;28;20060;-75
2023/12/02 02:52:27;;;;;;;17.40;15.95;;;;;;;;;;5005187;28;20801;-74
2023/12/02 02:54:58;;;;;;;15.93;13.90;;;;;;;;;;5004985;28;20052;-74
2023/12/02 02:57:28;;;;;;;19.60;17.58;;;;;;;;;;5004184;28;20885;-75
2023/12/02 02:59:59;;;;;;;18.35;16.38;;;;;;;;;;5004797;28;20052;-75
2023/12/02 03:02:29;;;;;;;23.52;17.90;;;;;;;;;;5005390;28;20057;-75
2023/12/02 03:04:59;;;;;;;17.75;16.10;;;;;;;;;;5004713;28;20053;-74
2023/12/02 03:07:28;;;;;;;16.35;12.88;;;;;;;;;;5005123;28;20046;-75
2023/12/02 03:10:00;;;;;;;17.67;15.98;;;;;;;;;;5004997;28;20046;-74
2023/12/02 03:12:30;;;;;;;22.67;20.42;;;;;;;;;;5004459;28;20679;-74
2023/12/02 03:15:00;;;;;;;14.52;13.10;;;;;;;;;;5004115;28;20065;-74
2023/12/02 03:17:31;;;;;;;14.95;13.40;;;;;;;;;;5004290;28;20343;-75
2023/12/02 03:20:01;;;;;;;17.40;15.80;;;;;;;;;;5003402;28;20061;-76
2023/12/02 03:22:31;;;;;;;15.88;13.02;;;;;;;;;;5003790;28;20073;-74
2023/12/02 03:25:02;;;;;;;14.35;9.90;;;;;;;;;;5002441;28;20054;-74
2023/12/02 03:27:32;;;;;;;17.92;15.85;;;;;;;;;;5004626;28;20558;-74
2023/12/02 03:30:03;;;;;;;15.30;13.70;;;;;;;;;;5004297;28;20149;-74
2023/12/02 03:32:35;;;;;;;18.63;15.38;;;;;;;;;;5002586;28;20058;-75
2023/12/02 03:35:07;;;;;;;17.40;13.00;;;;;;;;;;5003087;28;20046;-75
2023/12/02 03:37:38;;;;;;;15.95;14.38;;;;;;;;;;5005450;28;20073;-74
2023/12/02 03:40:10;;;;;;;16.25;14.60;;;;;;;;;;5023015;28;20076;-74
2023/12/02 03:42:41;;;;;;;14.48;13.18;;;;;;;;;;5023312;28;20077;-75
2023/12/02 03:45:11;;;;;;;17.35;13.27;;;;;;;;;;5023238;28;20045;-74
2023/12/02 03:47:42;;;;;;;14.00;11.32;;;;;;;;;;5023171;28;20049;-74
2023/12/02 03:50:12;;;;;;;15.20;13.80;;;;;;;;;;5023569;28;20060;-75
2023/12/02 03:52:46;;;;;;;17.30;15.52;;;;;;;;;;5021687;28;20425;-75
2023/12/02 03:55:21;;;;;;;16.75;15.30;;;;;;;;;;5023089;28;20049;-74
2023/12/02 03:57:51;;;;;;;15.65;12.60;;;;;;;;;;5023385;28;20053;-75
2023/12/02 04:00:21;;;;;;;15.75;11.75;;;;;;;;;;5023636;28;20052;-74
2023/12/02 04:02:52;;;;;;;18.52;15.80;;;;;;;;;;5023141;28;20060;-74
2023/12/02 04:05:23;;;;;;;12.55;10.65;;;;;;;;;;5023322;28;20041;-74
2023/12/02 04:07:54;;;;;;;16.90;15.27;;;;;;;;;;5022648;28;20045;-74
2023/12/02 04:10:24;;;;;;;15.93;13.98;;;;;;;;;;5022599;28;20057;-74
2023/12/02 04:12:54;;;;;;;16.60;14.25;;;;;;;;;;5023067;28;20054;-74
2023/12/02 04:15:25;;;;;;;17.48;14.32;;;;;;;;;;5023455;28;20054;-74
2023/12/02 04:17:55;;;;;;;17.88;14.60;;;;;;;;;;5023094;28;20080;-74
2023/12/02 04:20:26;;;;;;;20.45;18.30;;;;;;;;;;5023247;28;20041;-74
2023/12/02 04:22:56;;;;;;;20.98;18.80;;;;;;;;;;5022753;28;20050;-74
2023/12/02 04:25:29;;;;;;;19.95;18.17;;;;;;;;;;5023063;28;20041;-75
2023/12/02 04:28:00;;;;;;;16.77;14.98;;;;;;;;;;5023142;28;20519;-75
2023/12/02 04:30:30;;;;;;;17.77;15.95;;;;;;;;;;5022357;28;20786;-74
2023/12/02 04:33:00;;;;;;;19.08;17.52;;;;;;;;;;5022908;28;20041;-74
2023/12/02 04:35:34;;;;;;;15.45;13.43;;;;;;;;;;5023490;28;20084;-74
2023/12/02 04:38:05;;;;;;;17.73;15.98;;;;;;;;;;5022842;28;20049;-75
2023/12/02 04:40:35;;;;;;;19.80;17.70;;;;;;;;;;5022534;28;20527;-75
2023/12/02 04:43:06;;;;;;;24.00;20.08;;;;;;;;;;5021209;28;20064;-75
2023/12/02 04:45:36;;;;;;;22.25;16.63;;;;;;;;;;5021121;28;20065;-74
2023/12/02 04:48:07;;;;;;;19.85;18.00;;;;;;;;;;5022752;28;20056;-75
2023/12/02 04:50:38;;;;;;;20.23;18.45;;;;;;;;;;5022610;28;20056;-75
2023/12/02 04:53:09;;;;;;;19.55;17.92;;;;;;;;;;5022489;28;20068;-74
2023/12/02 04:55:39;;;;;;;16.33;14.73;;;;;;;;;;5022371;28;20496;-75
2023/12/02 04:58:10;;;;;;;26.02;22.17;;;;;;;;;;5023019;28;20400;-78
2023/12/02 05:00:40;;;;;;;20.63;18.67;;;;;;;;;;5021177;28;20060;-74
2023/12/02 05:03:16;;;;;;;17.00;14.98;;;;;;;;;;5022296;28;20053;-75
2023/12/02 05:05:47;;;;;;;19.58;17.80;;;;;;;;;;5022489;28;20068;-74
2023/12/02 05:08:18;;;;;;;18.83;17.20;;;;;;;;;;5022669;28;20432;-75
2023/12/02 05:10:48;;;;;;;20.85;15.73;;;;;;;;;;5022411;28;20060;-75
2023/12/02 05:13:18;;;;;;;19.45;15.93;;;;;;;;;;5022559;28;20048;-74
2023/12/02 05:16:01;;;;;;;26.27;17.40;;;;;;;;;;5022426;28;20052;-75
2023/12/02 05:18:32;;;;;;;19.17;15.93;;;;;;;;;;5022471;28;20041;-74
2023/12/02 05:21:02;;;;;;;16.15;14.50;;;;;;;;;;5022446;28;20504;-74
2023/12/02 05:23:35;;;;;;;20.23;18.52;;;;;;;;;;5022302;28;20520;-74
2023/12/02 05:26:07;;;;;;;22.50;20.50;;;;;;;;;;5022133;28;20419;-74
2023/12/02 05:28:40;;;;;;;14.48;13.00;;;;;;;;;;5022767;28;20041;-75
2023/12/02 05:31:11;;;;;;;12.25;10.98;;;;;;;;;;5022121;28;20053;-74
2023/12/02 05:33:42;;;;;;;14.15;11.93;;;;;;;;;;5021323;28;20056;-75
2023/12/02 05:36:12;;;;;;;15.73;14.25;;;;;;;;;;5022123;28;20057;-75
2023/12/02 05:38:42;;;;;;;16.75;14.10;;;;;;;;;;5022123;28;20060;-74
2023/12/02 05:41:13;;;;;;;14.18;12.73;;;;;;;;;;5021430;28;20531;-75
2023/12/02 05:43:43;;;;;;;19.67;17.83;;;;;;;;;;5021935;28;20395;-74
2023/12/02 05:46:19;;;;;;;16.58;11.30;;;;;;;;;;5020313;28;20595;-75
2023/12/02 05:48:49;;;;;;;15.43;12.23;;;;;;;;;;5021952;28;20065;-75
2023/12/02 05:51:20;;;;;;;17.23;15.50;;;;;;;;;;5022355;28;20400;-74
2023/12/02 05:53:50;;;;;;;20.27;11.23;;;;;;;;;;5021888;28;20065;-74
2023/12/02 05:56:21;;;;;;;15.05;13.73;;;;;;;;;;5025395;28;20049;-75
2023/12/02 05:58:51;;;;;;;16.20;11.80;;;;;;;;;;5023654;28;20042;-76
2023/12/02 06:01:22;;;;;;;20.08;15.55;;;;;;;;;;5025770;28;20524;-74
2023/12/02 06:03:55;;;;;;;14.48;12.95;;;;;;;;;;5025470;28;20048;-75
2023/12/02 06:06:25;;;;;;;15.30;14.00;;;;;;;;;;5025323;28;20049;-75
2023/12/02 06:08:56;;;;;;;15.55;12.48;;;;;;;;;;5040318;28;20057;-75
2023/12/02 06:11:26;;;;;;;17.38;15.60;;;;;;;;;;5025557;28;20415;-74
2023/12/02 06:13:57;;;;;;;15.30;13.15;;;;;;;;;;5025462;28;20045;-74
2023/12/02 06:16:27;;;;;;;15.18;11.45;;;;;;;;;;5025186;28;20053;-75
2023/12/02 06:18:57;;;;;;;15.93;11.38;;;;;;;;;;5024191;28;20079;-75
2023/12/02 06:21:27;;;;;;;17.75;12.15;;;;;;;;;;5025723;28;20053;-75
2023/12/02 06:23:57;;;;;;;13.43;11.63;;;;;;;;;;5025215;28;20044;-75
2023/12/02 06:26:28;;;;;;;16.48;12.55;;;;;;;;;;5025157;28;20053;-74
2023/12/02 06:28:58;;;;;;;13.95;11.48;;;;;;;;;;5025690;28;20053;-75
2023/12/02 06:31:28;;;;;;;12.38;10.75;;;;;;;;;;5023706;28;20046;-75
2023/12/02 06:33:58;;;;;;;16.55;12.65;;;;;;;;;;5024883;28;20045;-74
2023/12/02 06:36:30;;;;;;;12.38;10.20;;;;;;;;;;5025100;28;20514;-75
2023/12/02 06:39:01;;;;;;;15.10;10.57;;;;;;;;;;5024882;28;20058;-74
2023/12/02 06:41:31;;;;;;;15.48;13.52;;;;;;;;;;5024978;28;20045;-74
2023/12/02 06:44:01;;;;;;;23.00;13.60;;;;;;;;;;5025662;28;20076;-74
2023/12/02 06:46:32;;;;;;;13.77;11.80;;;;;;;;;;5024324;28;20050;-75
2023/12/02 06:49:02;;;;;;;13.32;11.70;;;;;;;;;;5025113;28;20663;-75
2023/12/02 06:51:32;;;;;;;13.00;11.23;;;;;;;;;;5024723;28;20037;-74
2023/12/02 06:54:02;;;;;;;15.00;10.68;;;;;;;;;;5024195;28;20049;-75
2023/12/02 06:56:33;;;;;;;21.10;13.27;;;;;;;;;;5025059;28;20072;-74
2023/12/02 06:59:03;;;;;;;19.42;14.57;;;;;;;;;;5024764;28;20049;-74
2023/12/02 07:01:34;;;;;;;19.13;16.60;;;;;;;;;;5024807;28;20052;-75
2023/12/02 07:04:04;;;;;;;17.25;12.73;;;;;;;;;;5025437;28;20046;-74
2023/12/02 07:06:35;;;;;;;18.00;14.73;;;;;;;;;;5022771;28;20049;-74
2023/12/02 07:09:05;;;;;;;16.77;15.18;;;;;;;;;;5024349;28;20048;-74
2023/12/02 07:11:36;;;;;;;18.50;15.88;;;;;;;;;;5024073;28;20053;-74
2023/12/02 07:14:05;;;;;;;19.80;16.42;;;;;;;;;;5023560;28;20049;-74
2023/12/02 07:16:35;;;;;;;16.50;13.00;;;;;;;;;;5024315;28;20052;-78
2023/12/02 07:19:05;;;;;;;13.55;12.23;;;;;;;;;;5023928;28;20057;-75
2023/12/02 07:21:36;;;;;;;16.95;12.30;;;;;;;;;;5024186;28;20049;-74
2023/12/02 07:24:07;;;;;;;12.10;10.48;;;;;;;;;;5024630;28;20049;-75
2023/12/02 07:26:38;;;;;;;14.63;12.73;;;;;;;;;;5024413;28;20050;-75
2023/12/02 07:29:07;;;;;;;14.88;9.68;;;;;;;;;;5023986;28;20048;-75
2023/12/02 07:31:38;;;;;;;13.05;11.82;;;;;;;;;;5023150;28;20057;-73
2023/12/02 07:34:08;;;;;;;15.38;12.50;;;;;;;;;;5025063;28;20045;-74
2023/12/02 07:36:40;;;;;;;16.30;12.55;;;;;;;;;;5023303;28;20034;-74
2023/12/02 07:39:09;;;;;;;15.45;12.95;;;;;;;;;;5023672;28;20060;-74
2023/12/02 07:41:42;;;;;;;16.83;14.80;;;;;;;;;;5023427;28;20048;-73
2023/12/02 07:44:12;;;;;;;18.48;15.00;;;;;;;;;;5023243;28;20052;-74
2023/12/02 07:46:43;;;;;;;12.02;10.40;;;;;;;;;;5023578;28;20056;-76
2023/12/02 07:49:13;;;;;;;16.05;14.48;;;;;;;;;;5023673;28;20053;-74
2023/12/02 07:51:43;;;;;;;28.35;25.35;;;;;;;;;;5023691;28;20045;-74
2023/12/02 07:54:14;;;;;;;17.67;15.82;;;;;;;;;;5023363;28;20045;-74
2023/12/02 07:56:44;;;;;;;19.77;17.83;;;;;;;;;;5023528;28;20060;-75
2023/12/02 07:59:14;;;;;;;14.25;12.77;;;;;;;;;;5023965;28;20500;-73
2023/12/02 08:01:44;;;;;;;14.85;12.85;;;;;;;;;;5023676;28;20053;-77
2023/12/02 08:04:14;;;;;;;16.27;13.98;;;;;;;;;;5022498;28;20052;-74
2023/12/02 08:06:45;;;;;;;16.23;14.73;;;;;;;;;;5023344;28;20426;-74
2023/12/02 08:09:14;;;;;;;14.20;12.70;;;;;;;;;;5023208;28;20052;-74
2023/12/02 08:11:46;;;;;;;26.45;24.17;;;;;;;;;;5023632;28;20428;-75
2023/12/02 08:14:16;;;;;;;14.40;12.98;;;;;;;;;;5023049;28;20049;-74
2023/12/02 08:16:46;;;;;;;21.58;19.15;;;;;;;;;;5022911;28;20045;-75
2023/12/02 08:19:17;;;;;;;20.63;18.67;;;;;;;;;;5022894;28;20045;-74
2023/12/02 08:21:48;;;;;;;15.35;13.80;;;;;;;;;;5022191;28;20507;-75
2023/12/02 08:24:18;;;;;;;18.95;15.98;;;;;;;;;;5023303;28;20052;-74
2023/12/02 08:26:48;;;;;;;16.63;14.93;;;;;;;;;;5022337;28;20056;-75
2023/12/02 08:29:18;;;;;;;18.52;16.77;;;;;;;;;;5022856;28;20054;-75
2023/12/02 08:31:48;;;;;;;19.73;17.73;;;;;;;;;;5023499;28;20049;-74
2023/12/02 08:34:19;;;;;;;18.05;15.65;;;;;;;;;;5023115;28;20045;-75
2023/12/02 08:36:50;;;;;;;18.42;15.85;;;;;;;;;;5021231;28;20056;-74
2023/12/02 08:39:20;;;;;;;11.10;8.18;;;;;;;;;;5022415;28;20536;-74
2023/12/02 08:41:50;;;;;;;15.80;14.10;;;;;;;;;;5022612;28;20041;-75
2023/12/02 08:44:23;;;;;;;36.10;32.80;;;;;;;;;;5022602;28;20401;-75
2023/12/02 08:46:54;;;;;;;17.25;14.27;;;;;;;;;;5023004;28;20053;-75
2023/12/02 08:49:24;;;;;;;20.63;18.63;;;;;;;;;;5022335;28;20049;-74
2023/12/02 08:51:54;;;;;;;17.13;15.18;;;;;;;;;;5021507;28;20053;-73
2023/12/02 08:54:24;;;;;;;14.95;13.60;;;;;;;;;;5022578;28;20049;-74
2023/12/02 08:56:54;;;;;;;12.30;8.70;;;;;;;;;;5022753;28;20045;-75
2023/12/02 08:59:26;;;;;;;10.05;9.15;;;;;;;;;;5022775;28;20049;-75
2023/12/02 09:01:57;;;;;;;11.80;10.35;;;;;;;;;;5022913;28;20053;-74
2023/12/02 09:04:28;;;;;;;14.50;11.95;;;;;;;;;;5022051;28;20049;-74
2023/12/02 09:06:59;;;;;;;11.73;10.55;;;;;;;;;;5022374;28;20061;-74
2023/12/02 09:09:30;;;;;;;12.15;11.05;;;;;;;;;;5022362;28;20060;-73
2023/12/02 09:12:01;;;;;;;11.13;10.07;;;;;;;;;;5026067;28;20045;-75
2023/12/02 09:14:31;;;;;;;12.65;10.32;;;;;;;;;;5025165;28;20045;-75
2023/12/02 09:17:03;;;;;;;18.17;14.88;;;;;;;;;;5023859;28;20049;-75
2023/12/02 09:20:25;;;;;;;10.52;8.82;;;;;;;;;;5021936;28;20050;-75
2023/12/02 09:23:00;;;;;;;13.60;10.82;;;;;;;;;;5020426;28;20053;-75
2023/12/02 09:25:35;;;;;;;12.82;11.55;;;;;;;;;;5023022;28;20060;-75
2023/12/02 09:28:08;;;;;;;10.85;9.75;;;;;;;;;;5022754;28;20056;-75
2023/12/02 09:30:51;;;;;;;13.70;12.38;;;;;;;;;;5024685;28;20057;-75
2023/12/02 09:33:38;;;;;;;11.18;9.52;;;;;;;;;;5025510;28;20061;-75
2023/12/02 09:36:29;;;;;;;11.20;10.05;;;;;;;;;;5024722;28;20060;-74
2023/12/02 09:39:17;;;;;;;10.18;9.25;;;;;;;;;;5026332;28;20064;-76
2023/12/02 09:41:54;;;;;;;14.00;10.45;;;;;;;;;;5025519;28;20527;-76
2023/12/02 09:44:46;;;;;;;20.42;11.63;;;;;;;;;;5025955;28;20049;-74
2023/12/02 09:47:18;;;;;;;13.20;12.00;;;;;;;;;;5025529;28;20049;-75
2023/12/02 09:49:54;;;;;;;13.68;12.32;;;;;;;;;;5025776;28;20530;-75
2023/12/02 09:52:52;;;;;;;13.65;11.55;;;;;;;;;;5026110;28;20049;-75
2023/12/02 09:55:39;;;;;;;19.40;14.85;;;;;;;;;;5025954;28;20412;-75
2023/12/02 09:58:12;;;;;;;16.15;13.43;;;;;;;;;;5043873;28;20496;-79
2023/12/02 10:01:12;;;;;;;17.13;10.57;;;;;;;;;;5045923;28;20844;-74
2023/12/02 10:04:06;;;;;;;15.35;10.82;;;;;;;;;;5045566;28;20507;-75
2023/12/02 10:07:15;;;;;;;13.95;11.60;;;;;;;;;;5045216;28;20056;-75
2023/12/02 10:10:08;;;;;;;11.80;9.30;;;;;;;;;;5042355;28;20056;-75
2023/12/02 10:13:07;;;;;;;12.20;9.25;;;;;;;;;;5045177;28;20068;-75
2023/12/02 10:15:41;;;;;;;12.82;9.88;;;;;;;;;;5045275;28;20053;-75
2023/12/02 10:18:13;;;;;;;13.48;10.63;;;;;;;;;;5045004;28;20053;-78
2023/12/02 10:20:50;;;;;;;12.20;10.95;;;;;;;;;;5044852;28;20052;-74
2023/12/02 10:23:28;;;;;;;14.68;13.15;;;;;;;;;;5045066;28;20539;-75
2023/12/02 10:26:08;;;;;;;12.18;11.00;;;;;;;;;;5045720;28;20531;-74
2023/12/02 10:28:52;;;;;;;12.23;11.25;;;;;;;;;;5044886;28;20391;-75
2023/12/02 10:31:29;;;;;;;11.15;9.23;;;;;;;;;;5043495;28;20053;-74
2023/12/02 10:34:18;;;;;;;12.00;10.85;;;;;;;;;;5045473;28;20484;-76
2023/12/02 10:36:52;;;;;;;11.57;9.70;;;;;;;;;;5044122;28;20060;-75
2023/12/02 10:39:44;;;;;;;13.10;11.23;;;;;;;;;;5044641;28;20439;-75
2023/12/02 10:42:29;;;;;;;13.45;12.15;;;;;;;;;;5044319;28;20408;-75
2023/12/02 10:45:05;;;;;;;11.52;10.43;;;;;;;;;;5045564;28;20047;-75
2023/12/02 10:47:37;;;;;;;9.70;8.75;;;;;;;;;;5045238;28;20116;-75
2023/12/02 10:50:08;;;;;;;11.88;10.77;;;;;;;;;;5045294;28;20361;-76
2023/12/02 10:53:03;;;;;;;15.98;14.27;;;;;;;;;;5045330;28;20384;-77
2023/12/02 10:55:37;;;;;;;9.70;8.38;;;;;;;;;;5044725;28;20060;-75
2023/12/02 10:58:08;;;;;;;12.43;11.13;;;;;;;;;;5044760;28;20053;-77
2023/12/02 11:00:42;;;;;;;13.85;12.40;;;;;;;;;;5044351;28;20451;-75
2023/12/02 11:03:50;;;;;;;10.43;9.43;;;;;;;;;;5045378;28;20056;-76
2023/12/02 11:06:29;;;;;;;11.18;10.05;;;;;;;;;;5044182;28;20056;-76
2023/12/02 11:09:28;;;;;;;16.52;14.90;;;;;;;;;;5043089;28;20044;-76
2023/12/02 11:12:06;;;;;;;14.15;12.77;;;;;;;;;;5044561;28;20053;-76
2023/12/02 11:14:43;;;;;;;13.35;12.13;;;;;;;;;;5044743;28;20071;-79
2023/12/02 11:17:23;;;;;;;14.50;7.05;;;;;;;;;;5045214;28;20053;-75
2023/12/02 11:19:54;;;;;;;7.93;7.22;;;;;;;;;;5045320;28;20056;-75
2023/12/02 11:22:47;;;;;;;10.80;9.80;;;;;;;;;;5044715;28;20412;-76
2023/12/02 11:25:26;;;;;;;10.00;8.95;;;;;;;;;;5044549;28;20048;-75
2023/12/02 11:28:07;;;;;;;7.50;6.70;;;;;;;;;;5044487;28;20053;-76
2023/12/02 11:30:47;;;;;;;;;;;;;;;;;;5044768;28;20476;-76
2023/12/02 11:33:43;;;;;;;11.25;6.05;;;;;;;;;;5044407;28;19925;-76
2023/12/02 11:37:01;;;;;;;11.85;10.77;;;;;;;;;;5043344;28;20048;-75
2023/12/02 11:39:31;;;;;;;12.95;11.73;;;;;;;;;;5042949;28;20465;-76
2023/12/02 11:42:25;;;;;;;8.98;6.75;;;;;;;;;;5044234;28;20056;-76
2023/12/02 11:45:04;;;;;;;11.15;7.68;;;;;;;;;;5044375;28;20041;-76
2023/12/02 11:47:43;;;;;;;16.33;12.30;;;;;;;;;;5044039;28;20412;-80
2023/12/02 11:50:25;;;;;;;9.73;8.77;;;;;;;;;;5043866;28;20041;-76
2023/12/02 11:53:01;;;;;;;8.20;7.40;;;;;;;;;;5042941;28;20049;-77
2023/12/02 11:55:57;;;;;;;9.57;8.57;;;;;;;;;;5043560;28;20056;-76
2023/12/02 11:58:45;;;;;;;10.95;8.38;;;;;;;;;;5042792;28;20527;-75
2023/12/02 12:01:38;;;;;;;8.23;7.15;;;;;;;;;;5043141;28;20052;-76
2023/12/02 12:04:20;;;;;;;7.90;7.10;;;;;;;;;;5043580;28;20061;-76
2023/12/02 12:06:53;;;;;;;11.48;10.35;;;;;;;;;;5043236;28;20064;-76
2023/12/02 12:09:58;;;;;;;10.27;9.23;;;;;;;;;;5042898;28;20053;-76
2023/12/02 12:12:33;;;;;;;9.48;8.02;;;;;;;;;;5029650;28;20056;-76
2023/12/02 12:15:04;;;;;;;10.43;9.43;;;;;;;;;;5043068;28;20056;-75
2023/12/02 12:17:35;;;;;;;7.32;6.72;;;;;;;;;;5042791;28;20044;-74
2023/12/02 12:20:17;;;;;;;11.07;7.38;;;;;;;;;;5043206;28;20044;-76
2023/12/02 12:22:48;;;;;;;14.35;12.80;;;;;;;;;;5043089;28;20064;-75
2023/12/02 12:25:19;;;;;;;9.50;8.70;;;;;;;;;;5041747;28;20057;-76
2023/12/02 12:27:50;;;;;;;9.68;7.68;;;;;;;;;;5041997;28;20053;-76
2023/12/02 12:30:20;;;;;;;9.65;8.75;;;;;;;;;;5044044;28;20383;-75
2023/12/02 12:32:51;;;;;;;8.43;7.57;;;;;;;;;;5041179;28;20053;-76
2023/12/02 12:35:22;;;;;;;7.70;6.75;;;;;;;;;;5041627;28;20055;-75
2023/12/02 12:37:52;;;;;;;10.10;9.05;;;;;;;;;;5042578;28;20049;-76
2023/12/02 12:40:23;;;;;;;9.80;7.32;;;;;;;;;;5042801;28;20052;-80
2023/12/02 12:42:54;;;;;;;9.40;8.48;;;;;;;;;;5042378;28;20499;-76
2023/12/02 12:45:25;;;;;;;7.15;6.45;;;;;;;;;;5042687;28;20049;-76
2023/12/02 12:47:56;;;;;;;10.10;9.30;;;;;;;;;;5040877;28;20666;-76
2023/12/02 12:50:33;;;;;;;6.80;6.20;;;;;;;;;;5041447;28;20500;-76
2023/12/02 12:53:12;;;;;;;7.22;6.53;;;;;;;;;;5042170;28;20049;-80
2023/12/02 12:55:45;;;;;;;10.52;6.63;;;;;;;;;;5042624;28;20574;-76
2023/12/02 12:58:20;;;;;;;6.25;5.68;;;;;;;;;;5042673;28;20055;-77
2023/12/02 13:00:50;;;;;;;7.97;6.65;;;;;;;;;;5040793;28;20052;-76
2023/12/02 13:03:50;;;;;;;6.35;5.38;;;;;;;;;;5042581;28;20116;-76
2023/12/02 13:06:42;;;;;;;5.53;5.05;;;;;;;;;;5042125;28;20052;-78
2023/12/02 13:09:12;;;;;;;7.57;6.45;;;;;;;;;;5042968;28;20059;-76
2023/12/02 13:12:18;;;;;;;5.88;5.25;;;;;;;;;;5041975;28;20052;-77
2023/12/02 13:14:57;;;;;;;6.90;4.78;;;;;;;;;;5042395;28;20835;-75
2023/12/02 13:17:29;;;;;;;8.73;6.78;;;;;;;;;;5042454;28;20048;-77
2023/12/02 13:20:04;;;;;;;6.95;5.80;;;;;;;;;;5042338;28;20075;-76
2023/12/02 13:22:35;;;;;;;5.97;5.40;;;;;;;;;;5042450;28;21118;-76
2023/12/02 13:25:19;;;;;;;9.55;6.03;;;;;;;;;;5042221;28;20044;-77
2023/12/02 13:27:57;;;;;;;10.75;8.88;;;;;;;;;;5042426;28;20416;-76
2023/12/02 13:30:29;;;;;;;7.57;6.88;;;;;;;;;;5040780;28;20061;-77
2023/12/02 13:33:14;;;;;;;8.52;7.72;;;;;;;;;;5041361;28;20045;-77
2023/12/02 13:35:55;;;;;;;8.63;7.30;;;;;;;;;;5042271;28;20045;-76
2023/12/02 13:38:39;;;;;;;7.43;6.82;;;;;;;;;;5041976;28;20389;-77
2023/12/02 13:41:46;;;;;;;8.35;6.07;;;;;;;;;;5042061;28;20045;-76
2023/12/02 13:44:17;;;;;;;12.48;9.50;;;;;;;;;;5041799;28;20499;-76
2023/12/02 13:47:12;;;;;;;9.02;6.88;;;;;;;;;;5042679;28;20582;-76
2023/12/02 13:49:50;;;;;;;8.07;7.38;;;;;;;;;;5042112;28;20060;-76
2023/12/02 13:52:53;;;;;;;7.72;6.28;;;;;;;;;;5042187;28;20131;-77
2023/12/02 13:55:57;;;;;;;8.02;6.93;;;;;;;;;;5041411;28;20041;-76
2023/12/02 13:58:43;;;;;;;7.78;7.05;;;;;;;;;;5042704;28;20131;-76
2023/12/02 14:01:32;;;;;;;11.05;8.30;;;;;;;;;;5042023;28;20056;-76
2023/12/02 14:04:20;;;;;;;9.80;8.40;;;;;;;;;;5041718;28;20048;-76
2023/12/02 14:07:17;;;;;;;7.22;6.50;;;;;;;;;;5041900;28;20052;-77
2023/12/02 14:09:47;;;;;;;7.72;7.07;;;;;;;;;;5041432;28;20040;-76
2023/12/02 14:12:50;;;;;;;7.10;6.40;;;;;;;;;;5040736;28;20049;-75
2023/12/02 14:15:46;;;;;;;9.30;7.43;;;;;;;;;;5042382;28;20055;-79
2023/12/02 14:18:53;;;;;;;8.10;6.90;;;;;;;;;;5045127;28;20045;-76
2023/12/02 14:21:46;;;;;;;7.32;6.63;;;;;;;;;;5046102;28;20052;-76
2023/12/02 14:24:27;;;;;;;8.00;7.28;;;;;;;;;;5043833;28;20060;-76
2023/12/02 14:27:19;;;;;;;6.90;6.28;;;;;;;;;;5045591;28;20041;-77
2023/12/02 14:30:17;;;;;;;10.07;9.13;;;;;;;;;;5042619;28;20408;-76
2023/12/02 14:33:13;;;;;;;8.70;6.93;;;;;;;;;;5044588;28;20040;-76
2023/12/02 14:35:56;;;;;;;9.25;6.90;;;;;;;;;;5044937;28;20049;-75
2023/12/02 14:38:29;;;;;;;12.00;6.53;;;;;;;;;;5044425;28;20057;-76
2023/12/02 14:41:50;;;;;;;6.50;5.88;;;;;;;;;;5044162;28;20531;-76
2023/12/02 14:44:30;;;;;;;8.02;7.22;;;;;;;;;;5043130;28;20071;-76
2023/12/02 14:47:05;;;;;;;11.23;7.28;;;;;;;;;;5044907;28;20049;-76
2023/12/02 14:49:42;;;;;;;7.93;7.22;;;;;;;;;;5044478;28;20530;-76
2023/12/02 14:52:17;;;;;;;7.30;6.07;;;;;;;;;;5043924;28;20053;-76
2023/12/02 14:54:50;;;;;;;7.40;6.03;;;;;;;;;;5044402;28;20041;-76
2023/12/02 14:57:25;;;;;;;8.30;6.57;;;;;;;;;;5044583;28;20080;-76
2023/12/02 15:00:00;;;;;;;9.90;7.15;;;;;;;;;;5044476;28;20048;-75
2023/12/02 15:02:40;;;;;;;7.95;7.15;;;;;;;;;;5044388;28;20053;-77
2023/12/02 15:05:12;;;;;;;7.25;6.57;;;;;;;;;;5043515;28;20052;-76
2023/12/02 15:07:52;;;;;;;10.25;9.48;;;;;;;;;;5043022;28;20053;-75
2023/12/02 15:10:23;;;;;;;9.90;8.10;;;;;;;;;;5043818;28;20111;-76